createdAt,value
2022-11-15T00:01:24.593Z,98862.41
2022-11-15T00:03:54.529Z,98866.50
2022-11-15T00:06:21.566Z,98862.38
2022-11-15T00:08:48.586Z,98859.19
2022-11-15T00:11:15.607Z,98862.84
2022-11-15T00:13:42.701Z,98864.56
2022-11-15T00:16:10.470Z,98862.09
2022-11-15T00:18:37.449Z,98857.50
2022-11-15T00:21:07.505Z,98854.31
2022-11-15T00:23:35.384Z,98857.97
2022-11-15T00:26:02.638Z,98861.63
2022-11-15T00:28:29.649Z,98850.91
2022-11-15T00:31:02.742Z,98849.47
2022-11-15T00:33:30.114Z,98856.00
2022-11-15T00:36:10.483Z,98844.34
2022-11-15T00:38:39.428Z,98848.47
2022-11-15T00:41:09.786Z,98856.00
2022-11-15T00:43:37.758Z,98861.34
2022-11-15T00:46:04.942Z,98866.00
2022-11-15T00:48:32.684Z,98849.22
2022-11-15T00:50:59.815Z,98856.25
2022-11-15T00:53:26.965Z,98862.56
2022-11-15T00:55:54.169Z,98856.50
2022-11-15T00:58:21.260Z,98855.97
2022-11-15T01:00:48.433Z,98854.75
2022-11-15T01:03:15.474Z,98859.38
2022-11-15T01:05:42.608Z,98857.94
2022-11-15T01:08:18.813Z,98854.03
2022-11-15T01:10:45.906Z,98857.94
2022-11-15T01:13:13.035Z,98858.66
2022-11-15T01:15:43.668Z,98861.78
2022-11-15T01:18:10.986Z,98864.72
2022-11-15T01:20:43.021Z,98854.75
2022-11-15T01:23:10.564Z,98850.88
2022-11-15T01:25:37.599Z,98851.59
2022-11-15T01:28:04.695Z,98854.03
2022-11-15T01:30:31.766Z,98847.22
2022-11-15T01:32:58.725Z,98848.19
2022-11-15T01:35:25.866Z,98838.97
2022-11-15T01:37:52.957Z,98838.47
2022-11-15T01:40:20.028Z,98837.97
2022-11-15T01:42:47.044Z,98844.06
2022-11-15T01:45:16.788Z,98833.13
2022-11-15T01:47:54.026Z,98826.28
2022-11-15T01:50:29.248Z,98829.94
2022-11-15T01:52:56.854Z,98824.31
2022-11-15T01:55:27.663Z,98828.00
2022-11-15T01:58:00.154Z,98829.91
2022-11-15T02:00:27.277Z,98825.06
2022-11-15T02:02:54.650Z,98831.16
2022-11-15T02:05:21.983Z,98813.63
2022-11-15T02:07:50.297Z,98823.81
2022-11-15T02:10:22.906Z,98819.97
2022-11-15T02:12:51.109Z,98814.84
2022-11-15T02:15:18.608Z,98812.16
2022-11-15T02:18:00.804Z,98810.69
2022-11-15T02:21:22.458Z,98817.06
2022-11-15T02:23:55.111Z,98817.97
2022-11-15T02:26:36.993Z,98808.94
2022-11-15T02:29:49.154Z,98805.06
2022-11-15T02:32:42.553Z,98813.56
2022-11-15T02:35:44.296Z,98810.41
2022-11-15T02:38:22.236Z,98816.53
2022-11-15T02:41:02.331Z,98818.47
2022-11-15T02:44:00.387Z,98818.47
2022-11-15T02:46:57.065Z,98817.72
2022-11-15T02:49:29.516Z,98821.66
2022-11-15T02:51:57.418Z,98825.06
2022-11-15T02:54:27.814Z,98813.38
2022-11-15T02:56:57.560Z,98813.88
2022-11-15T02:59:46.358Z,98813.38
2022-11-15T03:02:16.465Z,98808.25
2022-11-15T03:04:52.087Z,98806.81
2022-11-15T03:07:36.492Z,98793.91
2022-11-15T03:10:03.485Z,98793.66
2022-11-15T03:12:50.451Z,98792.66
2022-11-15T03:15:38.103Z,98790.28
2022-11-15T03:18:19.336Z,98785.63
2022-11-15T03:20:47.252Z,98784.19
2022-11-15T03:23:14.862Z,98766.66
2022-11-15T03:25:50.049Z,98776.63
2022-11-15T03:28:24.302Z,98762.78
2022-11-15T03:30:54.927Z,98766.88
2022-11-15T03:33:23.366Z,98753.75
2022-11-15T03:35:51.540Z,98756.91
2022-11-15T03:38:27.264Z,98755.50
2022-11-15T03:41:02.926Z,98752.81
2022-11-15T03:43:44.929Z,98749.13
2022-11-15T03:46:25.739Z,98743.03
2022-11-15T03:48:58.268Z,98739.63
2022-11-15T03:51:25.778Z,98736.22
2022-11-15T03:53:53.185Z,98744.25
2022-11-15T03:56:20.358Z,98741.28
2022-11-15T03:58:47.568Z,98741.53
2022-11-15T04:01:14.600Z,98734.72
2022-11-15T04:03:41.689Z,98738.84
2022-11-15T04:06:09.203Z,98733.25
2022-11-15T04:08:36.310Z,98745.19
2022-11-15T04:11:03.329Z,98752.28
2022-11-15T04:13:31.059Z,98746.72
2022-11-15T04:15:58.267Z,98742.28
2022-11-15T04:18:25.602Z,98731.34
2022-11-15T04:21:11.146Z,98739.13
2022-11-15T04:23:56.673Z,98737.16
2022-11-15T04:26:24.469Z,98746.44
2022-11-15T04:29:10.414Z,98747.88
2022-11-15T04:31:37.853Z,98754.22
2022-11-15T04:34:05.488Z,98757.16
2022-11-15T04:36:51.354Z,98750.31
2022-11-15T04:39:18.554Z,98755.16
2022-11-15T04:41:45.599Z,98758.81
2022-11-15T04:44:12.652Z,98756.38
2022-11-15T04:46:39.717Z,98746.63
2022-11-15T04:49:06.708Z,98740.28
2022-11-15T04:51:33.808Z,98742.97
2022-11-15T04:54:00.943Z,98741.00
2022-11-15T04:56:28.015Z,98740.25
2022-11-15T04:58:55.021Z,98742.44
2022-11-15T05:01:22.050Z,98744.84
2022-11-15T05:04:07.600Z,98744.16
2022-11-15T05:06:34.612Z,98743.19
2022-11-15T05:09:01.658Z,98735.88
2022-11-15T05:11:28.745Z,98731.75
2022-11-15T05:13:56.254Z,98738.06
2022-11-15T05:16:23.848Z,98739.50
2022-11-15T05:18:55.345Z,98743.19
2022-11-15T05:21:22.913Z,98741.22
2022-11-15T05:23:49.982Z,98737.59
2022-11-15T05:26:19.510Z,98738.09
2022-11-15T05:28:46.877Z,98740.06
2022-11-15T05:31:16.505Z,98746.84
2022-11-15T05:33:45.581Z,98747.81
2022-11-15T05:36:36.099Z,98759.00
2022-11-15T05:39:03.378Z,98755.63
2022-11-15T05:41:38.477Z,98766.81
2022-11-15T05:44:08.301Z,98766.06
2022-11-15T05:46:36.719Z,98767.72
2022-11-15T05:49:05.615Z,98773.09
2022-11-15T05:51:32.742Z,98777.50
2022-11-15T05:54:00.137Z,98784.31
2022-11-15T05:56:27.403Z,98789.66
2022-11-15T05:58:59.523Z,98796.47
2022-11-15T06:01:28.069Z,98793.34
2022-11-15T06:03:55.335Z,98796.72
2022-11-15T06:06:22.380Z,98791.13
2022-11-15T06:08:49.406Z,98796.22
2022-11-15T06:11:20.390Z,98796.47
2022-11-15T06:14:00.868Z,98797.69
2022-11-15T06:16:27.945Z,98795.97
2022-11-15T06:18:55.007Z,98795.22
2022-11-15T06:21:22.180Z,98796.94
2022-11-15T06:23:49.271Z,98804.94
2022-11-15T06:26:16.422Z,98799.78
2022-11-15T06:28:43.433Z,98806.63
2022-11-15T06:31:13.062Z,98811.47
2022-11-15T06:33:40.920Z,98808.50
2022-11-15T06:36:16.119Z,98803.91
2022-11-15T06:38:47.749Z,98807.31
2022-11-15T06:41:15.600Z,98801.22
2022-11-15T06:43:42.750Z,98808.81
2022-11-15T06:46:10.449Z,98816.09
2022-11-15T06:48:37.700Z,98810.53
2022-11-15T06:51:06.088Z,98814.69
2022-11-15T06:53:34.091Z,98819.34
2022-11-15T06:56:03.244Z,98815.22
2022-11-15T06:58:30.605Z,98808.41
2022-11-15T07:01:06.907Z,98814.50
2022-11-15T07:03:37.296Z,98804.03
2022-11-15T07:06:07.518Z,98810.09
2022-11-15T07:08:35.992Z,98807.16
2022-11-15T07:11:05.517Z,98814.75
2022-11-15T07:13:36.779Z,98822.50
2022-11-15T07:16:08.917Z,98823.50
2022-11-15T07:18:40.243Z,98822.31
2022-11-15T07:21:10.845Z,98830.31
2022-11-15T07:23:39.426Z,98830.53
2022-11-15T07:26:07.021Z,98828.84
2022-11-15T07:28:34.476Z,98832.00
2022-11-15T07:31:09.824Z,98835.69
2022-11-15T07:33:37.420Z,98833.25
2022-11-15T07:36:06.708Z,98842.25
2022-11-15T07:38:41.069Z,98834.47
2022-11-15T07:41:10.241Z,98836.91
2022-11-15T07:43:37.405Z,98831.81
2022-11-15T07:46:10.811Z,98839.13
2022-11-15T07:48:45.298Z,98838.38
2022-11-15T07:51:17.237Z,98836.91
2022-11-15T07:53:45.418Z,98844.19
2022-11-15T07:56:13.470Z,98839.59
2022-11-15T07:58:40.685Z,98849.53
2022-11-15T08:01:10.345Z,98849.53
2022-11-15T08:03:38.272Z,98857.13
2022-11-15T08:06:06.108Z,98866.38
2022-11-15T08:08:33.201Z,98861.53
2022-11-15T08:11:00.717Z,98863.25
2022-11-15T08:13:27.841Z,98873.94
2022-11-15T08:16:03.033Z,98867.38
2022-11-15T08:18:30.244Z,98881.28
2022-11-15T08:21:01.154Z,98874.94
2022-11-15T08:23:29.112Z,98884.91
2022-11-15T08:26:02.416Z,98892.69
2022-11-15T08:28:29.899Z,98896.84
2022-11-15T08:30:57.195Z,98889.78
2022-11-15T08:33:24.633Z,98902.22
2022-11-15T08:35:51.745Z,98906.34
2022-11-15T08:38:18.810Z,98911.97
2022-11-15T08:40:45.858Z,98908.59
2022-11-15T08:43:12.955Z,98919.53
2022-11-15T08:45:40.019Z,98903.22
2022-11-15T08:48:07.215Z,98904.69
2022-11-15T08:50:34.374Z,98910.03
2022-11-15T08:53:11.540Z,98914.16
2022-11-15T08:55:39.416Z,98914.41
2022-11-15T08:58:06.648Z,98914.66
2022-11-15T09:00:34.722Z,98912.72
2022-11-15T09:03:05.984Z,98921.00
2022-11-15T09:05:33.316Z,98934.16
2022-11-15T09:08:00.842Z,98940.25
2022-11-15T09:10:29.218Z,98943.44
2022-11-15T09:12:58.472Z,98938.31
2022-11-15T09:15:25.685Z,98943.47
2022-11-15T09:17:52.664Z,98948.56
2022-11-15T09:20:19.782Z,98958.31
2022-11-15T09:22:47.091Z,98947.59
2022-11-15T09:25:14.170Z,98958.59
2022-11-15T09:27:41.228Z,98962.75
2022-11-15T09:30:08.671Z,98963.47
2022-11-15T09:32:39.228Z,98962.25
2022-11-15T09:35:06.974Z,98968.56
2022-11-15T09:37:34.196Z,98970.75
2022-11-15T09:40:01.211Z,98977.34
2022-11-15T09:42:46.497Z,98983.25
2022-11-15T09:45:29.978Z,98979.31
2022-11-15T09:48:13.319Z,98980.78
2022-11-15T09:50:48.064Z,98986.91
2022-11-15T09:54:18.690Z,98984.66
2022-11-15T09:56:47.528Z,98986.63
2022-11-15T09:59:35.549Z,98982.25
2022-11-15T10:02:24.596Z,98977.63
2022-11-15T10:04:53.135Z,98986.66
2022-11-15T10:07:20.163Z,98973.50
2022-11-15T10:10:10.750Z,98975.47
2022-11-15T10:12:37.828Z,98977.44
2022-11-15T10:15:13.204Z,98974.97
2022-11-15T10:17:46.605Z,98979.38
2022-11-15T10:20:18.319Z,98968.16
2022-11-15T10:22:58.048Z,98979.13
2022-11-15T10:25:30.834Z,98974.53
2022-11-15T10:28:18.540Z,98982.31
2022-11-15T10:30:48.586Z,98980.34
2022-11-15T10:33:39.517Z,98982.56
2022-11-15T10:36:09.639Z,98976.22
2022-11-15T10:39:05.743Z,98975.94
2022-11-15T10:41:37.503Z,98976.19
2022-11-15T10:44:25.492Z,98973.03
2022-11-15T10:47:04.389Z,98975.00
2022-11-15T10:49:34.059Z,98975.47
2022-11-15T10:52:01.050Z,98988.16
2022-11-15T10:54:48.478Z,98984.75
2022-11-15T10:57:17.992Z,98983.03
2022-11-15T10:59:55.835Z,98983.75
2022-11-15T11:02:46.249Z,98993.03
2022-11-15T11:05:42.311Z,99002.03
2022-11-15T11:08:12.675Z,98999.84
2022-11-15T11:11:01.374Z,98999.34
2022-11-15T11:13:37.451Z,98996.91
2022-11-15T11:16:16.601Z,98989.09
2022-11-15T11:19:09.162Z,99000.56
2022-11-15T11:22:00.513Z,98987.63
2022-11-15T11:24:33.817Z,98981.53
2022-11-15T11:27:27.088Z,98979.75
2022-11-15T11:30:15.580Z,98979.53
2022-11-15T11:33:00.755Z,98972.97
2022-11-15T11:35:46.216Z,98971.72
2022-11-15T11:38:31.428Z,98965.38
2022-11-15T11:41:17.189Z,98960.00
2022-11-15T11:43:49.773Z,98960.97
2022-11-15T11:46:29.135Z,98959.22
2022-11-15T11:49:19.370Z,98959.94
2022-11-15T11:51:51.540Z,98956.28
2022-11-15T11:54:40.069Z,98966.56
2022-11-15T11:57:35.401Z,98967.06
2022-11-15T12:00:22.303Z,98957.97
2022-11-15T12:03:23.490Z,98955.28
2022-11-15T12:06:02.348Z,98953.28
2022-11-15T12:08:41.534Z,98955.72
2022-11-15T12:11:18.734Z,98947.91
2022-11-15T12:13:50.597Z,98951.34
2022-11-15T12:16:28.985Z,98948.63
2022-11-15T12:19:02.203Z,98949.81
2022-11-15T12:21:29.148Z,98941.25
2022-11-15T12:24:05.587Z,98936.56
2022-11-15T12:26:55.975Z,98928.53
2022-11-15T12:29:45.535Z,98927.53
2022-11-15T12:32:25.937Z,98915.25
2022-11-15T12:34:54.208Z,98912.28
2022-11-15T12:37:39.446Z,98910.56
2022-11-15T12:40:21.156Z,98893.66
2022-11-15T12:43:14.054Z,98883.59
2022-11-15T12:45:44.067Z,98875.75
2022-11-15T12:48:17.288Z,98875.75
2022-11-15T12:50:56.013Z,98866.91
2022-11-15T12:53:26.167Z,98869.81
2022-11-15T12:56:17.933Z,98866.66
2022-11-15T12:58:53.861Z,98869.81
2022-11-15T13:01:38.917Z,98870.50
2022-11-15T13:04:27.583Z,98871.19
2022-11-15T13:07:06.330Z,98871.41
2022-11-15T13:09:33.365Z,98877.25
2022-11-15T13:12:03.061Z,98867.66
2022-11-15T13:14:40.626Z,98872.56
2022-11-15T13:17:28.355Z,98864.25
2022-11-15T13:20:07.624Z,98865.69
2022-11-15T13:23:11.338Z,98850.25
2022-11-15T13:25:41.211Z,98838.53
2022-11-15T13:28:11.213Z,98834.56
2022-11-15T13:30:42.672Z,98840.03
2022-11-15T13:33:15.915Z,98832.09
2022-11-15T13:35:47.974Z,98830.19
2022-11-15T13:38:34.332Z,98811.81
2022-11-15T13:41:15.657Z,98813.75
2022-11-15T13:43:42.709Z,98814.06
2022-11-15T13:46:21.416Z,98807.66
2022-11-15T13:48:53.925Z,98799.25
2022-11-15T13:51:30.233Z,98802.75
2022-11-15T13:54:07.854Z,98800.50
2022-11-15T13:56:35.563Z,98793.81
2022-11-15T13:59:10.905Z,98798.91
2022-11-15T14:01:38.190Z,98793.53
2022-11-15T14:04:05.444Z,98800.72
2022-11-15T14:06:32.949Z,98805.31
2022-11-15T14:09:12.426Z,98798.97
2022-11-15T14:11:51.355Z,98804.06
2022-11-15T14:14:22.090Z,98803.63
2022-11-15T14:16:53.380Z,98798.84
2022-11-15T14:19:23.171Z,98805.63
2022-11-15T14:22:13.089Z,98812.75
2022-11-15T14:24:40.709Z,98812.69
2022-11-15T14:27:28.461Z,98818.06
2022-11-15T14:29:56.417Z,98814.59
2022-11-15T14:32:25.129Z,98810.16
2022-11-15T14:34:59.661Z,98814.03
2022-11-15T14:37:29.311Z,98810.00
2022-11-15T14:39:56.624Z,98814.97
2022-11-15T14:42:24.675Z,98803.59
2022-11-15T14:44:52.503Z,98793.34
2022-11-15T14:47:19.930Z,98795.28
2022-11-15T14:49:47.307Z,98791.78
2022-11-15T14:52:32.594Z,98791.78
2022-11-15T14:55:02.595Z,98789.25
2022-11-15T14:57:30.910Z,98790.22
2022-11-15T14:59:58.174Z,98788.28
2022-11-15T15:02:27.975Z,98790.84
2022-11-15T15:04:55.509Z,98792.78
2022-11-15T15:07:23.449Z,98797.22
2022-11-15T15:09:50.573Z,98806.25
2022-11-15T15:12:22.545Z,98807.63
2022-11-15T15:14:50.974Z,98811.88
2022-11-15T15:17:18.760Z,98819.50
2022-11-15T15:19:45.745Z,98823.63
2022-11-15T15:22:18.506Z,98830.91
2022-11-15T15:24:47.005Z,98831.78
2022-11-15T15:27:14.379Z,98838.13
2022-11-15T15:29:41.949Z,98841.97
2022-11-15T15:32:10.206Z,98850.69
2022-11-15T15:34:37.380Z,98855.59
2022-11-15T15:37:24.980Z,98851.13
2022-11-15T15:39:57.790Z,98858.28
2022-11-15T15:42:24.918Z,98853.00
2022-11-15T15:44:52.628Z,98850.81
2022-11-15T15:47:23.700Z,98863.75
2022-11-15T15:49:52.000Z,98861.81
2022-11-15T15:52:19.548Z,98855.06
2022-11-15T15:54:46.546Z,98843.63
2022-11-15T15:57:15.347Z,98841.50
2022-11-15T15:59:42.397Z,98815.44
2022-11-15T16:02:16.200Z,98809.50
2022-11-15T16:04:43.208Z,98800.25
2022-11-15T16:07:18.930Z,98798.75
2022-11-15T16:10:04.354Z,98793.31
2022-11-15T16:12:34.684Z,98787.13
2022-11-15T16:15:02.821Z,98796.56
2022-11-15T16:17:40.903Z,98800.66
2022-11-15T16:20:08.369Z,98792.47
2022-11-15T16:22:35.486Z,98798.91
2022-11-15T16:25:02.852Z,98794.88
2022-11-15T16:27:29.886Z,98792.13
2022-11-15T16:29:56.874Z,98789.84
2022-11-15T16:32:24.625Z,98789.16
2022-11-15T16:34:51.684Z,98793.03
2022-11-15T16:37:25.144Z,98785.13
2022-11-15T16:39:53.956Z,98783.09
2022-11-15T16:42:24.169Z,98797.53
2022-11-15T16:44:51.200Z,98794.09
2022-11-15T16:47:20.299Z,98789.84
2022-11-15T16:49:47.810Z,98786.84
2022-11-15T16:52:20.155Z,98793.69
2022-11-15T16:54:48.295Z,98801.78
2022-11-15T16:57:16.887Z,98806.00
2022-11-15T16:59:43.835Z,98811.94
2022-11-15T17:02:13.842Z,98809.00
2022-11-15T17:04:41.189Z,98808.31
2022-11-15T17:07:09.174Z,98808.59
2022-11-15T17:09:36.267Z,98808.59
2022-11-15T17:12:03.252Z,98800.72
2022-11-15T17:14:30.309Z,98795.31
2022-11-15T17:16:57.447Z,98786.31
2022-11-15T17:19:24.484Z,98783.28
2022-11-15T17:21:54.681Z,98793.94
2022-11-15T17:24:21.696Z,98791.78
2022-11-15T17:26:48.750Z,98790.22
2022-11-15T17:29:16.140Z,98789.47
2022-11-15T17:31:43.160Z,98797.69
2022-11-15T17:34:10.148Z,98809.78
2022-11-15T17:36:37.317Z,98816.50
2022-11-15T17:39:05.451Z,98819.03
2022-11-15T17:41:32.583Z,98816.16
2022-11-15T17:44:00.659Z,98830.38
2022-11-15T17:46:28.780Z,98827.75
2022-11-15T17:48:57.382Z,98834.38
2022-11-15T17:51:25.057Z,98837.63
2022-11-15T17:53:53.310Z,98833.25
2022-11-15T17:56:22.507Z,98833.78
2022-11-15T17:58:58.007Z,98844.31
2022-11-15T18:01:36.061Z,98841.63
2022-11-15T18:04:06.258Z,98842.91
2022-11-15T18:06:34.856Z,98847.63
2022-11-15T18:09:03.105Z,98847.44
2022-11-15T18:11:39.551Z,98850.13
2022-11-15T18:14:09.268Z,98856.78
2022-11-15T18:16:37.798Z,98849.94
2022-11-15T18:19:13.504Z,98863.38
2022-11-15T18:21:57.641Z,98851.00
2022-11-15T18:24:31.381Z,98853.94
2022-11-15T18:26:59.087Z,98859.06
2022-11-15T18:29:26.707Z,98857.91
2022-11-15T18:31:58.161Z,98856.91
2022-11-15T18:34:32.497Z,98858.88
2022-11-15T18:37:01.032Z,98861.81
2022-11-15T18:39:28.014Z,98859.13
2022-11-15T18:41:55.064Z,98866.44
2022-11-15T18:44:22.163Z,98861.81
2022-11-15T18:46:49.496Z,98872.28
2022-11-15T18:49:17.323Z,98869.34
2022-11-15T18:51:44.918Z,98862.03
2022-11-15T18:54:14.695Z,98863.97
2022-11-15T18:56:44.416Z,98866.66
2022-11-15T18:59:11.665Z,98866.66
2022-11-15T19:01:41.014Z,98865.44
2022-11-15T19:04:13.170Z,98870.81
2022-11-15T19:06:42.527Z,98866.66
2022-11-15T19:09:12.955Z,98876.44
2022-11-15T19:11:40.471Z,98874.25
2022-11-15T19:14:11.384Z,98877.44
2022-11-15T19:16:45.190Z,98882.53
2022-11-15T19:19:15.303Z,98878.16
2022-11-15T19:21:42.896Z,98872.78
2022-11-15T19:24:13.433Z,98877.94
2022-11-15T19:26:40.625Z,98880.13
2022-11-15T19:29:14.300Z,98882.06
2022-11-15T19:31:42.215Z,98887.44
2022-11-15T19:34:09.645Z,98891.81
2022-11-15T19:36:39.666Z,98888.16
2022-11-15T19:39:10.234Z,98890.63
2022-11-15T19:41:39.776Z,98888.19
2022-11-15T19:44:07.158Z,98882.34
2022-11-15T19:46:34.612Z,98887.22
2022-11-15T19:49:01.713Z,98883.59
2022-11-15T19:51:31.250Z,98890.88
2022-11-15T19:54:01.637Z,98882.63
2022-11-15T19:56:28.707Z,98889.69
2022-11-15T19:58:56.867Z,98885.78
2022-11-15T20:01:32.017Z,98889.91
2022-11-15T20:04:00.596Z,98891.16
2022-11-15T20:06:27.757Z,98889.19
2022-11-15T20:08:54.873Z,98891.16
2022-11-15T20:11:22.303Z,98897.47
2022-11-15T20:13:49.989Z,98899.44
2022-11-15T20:16:22.923Z,98901.38
2022-11-15T20:18:51.152Z,98909.19
2022-11-15T20:21:18.223Z,98897.00
2022-11-15T20:23:47.326Z,98911.84
2022-11-15T20:26:15.480Z,98910.16
2022-11-15T20:28:44.276Z,98912.59
2022-11-15T20:31:12.451Z,98920.88
2022-11-15T20:33:40.012Z,98922.34
2022-11-15T20:36:10.631Z,98918.72
2022-11-15T20:38:38.126Z,98923.31
2022-11-15T20:41:05.351Z,98918.19
2022-11-15T20:43:32.540Z,98922.09
2022-11-15T20:45:59.780Z,98922.81
2022-11-15T20:48:27.482Z,98916.22
2022-11-15T20:51:14.890Z,98914.78
2022-11-15T20:53:43.230Z,98913.06
2022-11-15T20:56:15.878Z,98911.88
2022-11-15T20:58:44.940Z,98905.06
2022-11-15T21:01:15.428Z,98910.13
2022-11-15T21:03:43.136Z,98906.97
2022-11-15T21:06:11.559Z,98905.03
2022-11-15T21:08:57.331Z,98904.53
2022-11-15T21:11:43.380Z,98910.13
2022-11-15T21:14:10.574Z,98907.22
2022-11-15T21:16:39.100Z,98904.28
2022-11-15T21:19:07.147Z,98912.34
2022-11-15T21:21:35.987Z,98904.03
2022-11-15T21:24:10.220Z,98907.69
2022-11-15T21:26:37.984Z,98908.69
2022-11-15T21:29:05.420Z,98914.06
2022-11-15T21:31:32.643Z,98911.81
2022-11-15T21:34:03.375Z,98916.47
2022-11-15T21:36:30.990Z,98909.88
2022-11-15T21:38:58.130Z,98911.13
2022-11-15T21:41:25.266Z,98906.94
2022-11-15T21:43:52.379Z,98914.28
2022-11-15T21:46:19.439Z,98910.34
2022-11-15T21:48:46.509Z,98925.69
2022-11-15T21:51:13.752Z,98926.91
2022-11-15T21:53:41.078Z,98929.59
2022-11-15T21:56:08.842Z,98920.34
2022-11-15T21:58:36.663Z,98919.41
2022-11-15T22:01:23.360Z,98924.22
2022-11-15T22:03:50.962Z,98917.41
2022-11-15T22:06:18.514Z,98914.25
2022-11-15T22:08:46.617Z,98914.97
2022-11-15T22:11:14.717Z,98919.34
2022-11-15T22:13:42.392Z,98916.66
2022-11-15T22:16:10.278Z,98901.78
2022-11-15T22:18:38.409Z,98904.94
2022-11-15T22:21:11.076Z,98904.94
2022-11-15T22:23:38.721Z,98904.47
2022-11-15T22:26:06.522Z,98894.00
2022-11-15T22:28:34.155Z,98900.81
2022-11-15T22:31:01.607Z,98903.25
2022-11-15T22:33:30.326Z,98898.84
2022-11-15T22:35:57.901Z,98907.13
2022-11-15T22:38:25.542Z,98904.19
2022-11-15T22:40:52.966Z,98900.81
2022-11-15T22:43:21.811Z,98900.34
2022-11-15T22:45:51.511Z,98900.09
2022-11-15T22:48:20.845Z,98895.69
2022-11-15T22:50:47.986Z,98896.19
2022-11-15T22:53:15.514Z,98894.50
2022-11-15T22:55:42.984Z,98909.06
2022-11-15T22:58:10.735Z,98901.34
2022-11-15T23:00:37.852Z,98908.63
2022-11-15T23:03:05.047Z,98903.53
2022-11-15T23:05:32.707Z,98907.91
2022-11-15T23:07:59.720Z,98897.91
2022-11-15T23:10:45.073Z,98894.03
2022-11-15T23:13:16.542Z,98901.03
2022-11-15T23:16:04.321Z,98902.03
2022-11-15T23:18:41.978Z,98903.25
2022-11-15T23:21:10.452Z,98896.44
2022-11-15T23:23:37.502Z,98901.50
2022-11-15T23:26:05.340Z,98895.94
2022-11-15T23:28:34.054Z,98902.25
2022-11-15T23:31:26.782Z,98897.13
2022-11-15T23:33:59.976Z,98895.69
2022-11-15T23:36:28.481Z,98889.84
2022-11-15T23:38:56.121Z,98890.78
2022-11-15T23:41:26.326Z,98879.34
2022-11-15T23:43:53.430Z,98877.34
2022-11-15T23:46:20.435Z,98883.22
2022-11-15T23:48:47.627Z,98884.69
2022-11-15T23:51:15.282Z,98882.25
2022-11-15T23:53:43.754Z,98880.09
2022-11-15T23:56:13.596Z,98871.03
2022-11-15T23:58:41.692Z,98875.44
